Time,TemperatureF,DewpointF,PressureIn,WindDirection,WindDirectionDegrees,WindSpeedMPH,WindSpeedGustMPH,Humidity,HourlyPrecipIn,Conditions,Clouds,dailyrainin,SolarRadiationWatts/m^2,SoftwareType,DateUTC
2013-07-27 00:02:00,65.0,50.0,-100.00,ENE,60,0.0,4.0,58,0.00,,,-99.99,0.000000,,2013-07-27 07:02:00,
2013-07-27 00:12:00,65.0,50.0,-100.00,ENE,60,0.0,4.0,58,0.00,,,-99.99,0.000000,,2013-07-27 07:12:00,
2013-07-27 00:44:00,67.0,51.0,-100.00,NNE,15,0.0,3.0,56,0.00,,,0.03,0.000000,,2013-07-27 07:44:00,
2013-07-27 00:52:00,67.0,51.0,-100.00,NNE,15,0.0,3.0,56,0.00,,,0.03,0.000000,,2013-07-27 07:52:00,
2013-07-27 01:02:00,67.0,51.0,-100.00,NNE,15,0.0,3.0,56,0.00,,,0.03,0.000000,,2013-07-27 08:02:00,
2013-07-27 01:12:00,67.0,51.0,-100.00,NNE,15,0.0,3.0,56,0.00,,,0.03,0.000000,,2013-07-27 08:12:00,
2013-07-27 01:43:00,64.0,50.0,-100.00,ESE,103,0.0,0.0,61,0.00,,,0.03,0.000000,,2013-07-27 08:43:00,
2013-07-27 01:53:00,64.0,50.0,-100.00,ESE,103,0.0,0.0,61,0.00,,,0.03,0.000000,,2013-07-27 08:53:00,
2013-07-27 02:02:00,64.0,50.0,-100.00,ESE,103,0.0,0.0,61,0.00,,,0.03,0.000000,,2013-07-27 09:02:00,
2013-07-27 02:11:00,64.0,50.0,-100.00,ESE,103,0.0,0.0,61,0.00,,,0.03,0.000000,,2013-07-27 09:11:00,
2013-07-27 02:44:00,65.0,51.0,-100.00,ESE,110,0.0,0.0,61,0.00,,,0.02,0.000000,,2013-07-27 09:44:00,
2013-07-27 02:52:00,65.0,51.0,-100.00,ESE,110,0.0,0.0,61,0.00,,,0.02,0.000000,,2013-07-27 09:52:00,
2013-07-27 03:02:00,65.0,51.0,-100.00,ESE,110,0.0,0.0,61,0.00,,,0.02,0.000000,,2013-07-27 10:02:00,
2013-07-27 03:12:00,65.0,51.0,-100.00,ESE,110,0.0,0.0,61,0.00,,,0.02,0.000000,,2013-07-27 10:12:00,
2013-07-27 03:44:00,64.0,47.0,-100.00,NNW,337,0.0,0.0,53,0.00,,,0.02,0.000000,,2013-07-27 10:44:00,
2013-07-27 03:52:00,64.0,47.0,-100.00,NNW,337,0.0,0.0,53,0.00,,,0.02,0.000000,,2013-07-27 10:52:00,
2013-07-27 04:02:00,64.0,47.0,-100.00,NNW,337,0.0,0.0,53,0.00,,,0.02,0.000000,,2013-07-27 11:02:00,
2013-07-27 04:12:00,64.0,47.0,-100.00,NNW,337,0.0,0.0,53,0.00,,,0.02,0.000000,,2013-07-27 11:12:00,
2013-07-27 04:44:00,64.0,47.0,-100.00,ESE,104,0.0,0.0,55,0.00,,,0.02,0.000000,,2013-07-27 11:44:00,
2013-07-27 04:53:00,64.0,47.0,-100.00,ESE,104,0.0,0.0,55,0.00,,,0.02,0.000000,,2013-07-27 11:53:00,
2013-07-27 05:02:00,64.0,47.0,-100.00,ESE,104,0.0,0.0,55,0.00,,,0.02,0.000000,,2013-07-27 12:02:00,
2013-07-27 05:12:00,64.0,47.0,-100.00,ESE,104,0.0,0.0,55,0.00,,,0.02,0.000000,,2013-07-27 12:12:00,
2013-07-27 05:43:00,63.0,51.0,-100.00,East,90,0.0,0.0,66,0.00,,,0.02,0.000000,,2013-07-27 12:43:00,
2013-07-27 05:52:00,63.0,51.0,-100.00,East,90,0.0,0.0,66,0.00,,,0.02,0.000000,,2013-07-27 12:52:00,
2013-07-27 06:02:00,63.0,51.0,-100.00,East,90,0.0,0.0,66,0.00,,,0.02,0.000000,,2013-07-27 13:02:00,
2013-07-27 06:12:00,63.0,51.0,-100.00,East,90,0.0,0.0,66,0.00,,,0.02,0.000000,,2013-07-27 13:12:00,
2013-07-27 06:44:00,65.0,52.0,-100.00,SE,132,0.0,0.0,63,0.00,,,0.02,1.000000,,2013-07-27 13:44:00,
2013-07-27 06:53:00,65.0,52.0,-100.00,SE,132,0.0,0.0,63,0.00,,,0.02,1.000000,,2013-07-27 13:53:00,
2013-07-27 07:02:00,65.0,52.0,-100.00,SE,132,0.0,0.0,63,0.00,,,0.02,1.000000,,2013-07-27 14:02:00,
2013-07-27 07:12:00,65.0,52.0,-100.00,SE,132,0.0,0.0,63,0.00,,,0.02,1.000000,,2013-07-27 14:12:00,
2013-07-27 09:02:00,80.0,51.0,-100.00,WNW,292,0.0,2.0,37,0.00,,,0.00,447.000000,,2013-07-27 16:02:00,
2013-07-27 09:12:00,80.0,51.0,-100.00,WNW,292,0.0,2.0,37,0.00,,,0.00,447.000000,,2013-07-27 16:12:00,
2013-07-27 10:43:00,82.0,52.0,-100.00,WNW,294,5.0,10.0,35,0.00,,,0.00,868.000000,,2013-07-27 17:43:00,
2013-07-27 10:53:00,82.0,52.0,-100.00,WNW,294,5.0,10.0,35,0.00,,,0.00,868.000000,,2013-07-27 17:53:00,
2013-07-27 11:02:00,82.0,52.0,-100.00,WNW,294,5.0,10.0,35,0.00,,,0.00,868.000000,,2013-07-27 18:02:00,
2013-07-27 11:12:00,82.0,52.0,-100.00,WNW,294,5.0,10.0,35,0.00,,,0.00,868.000000,,2013-07-27 18:12:00,
2013-07-27 11:43:00,81.0,53.0,-100.00,West,281,5.0,9.0,38,0.00,,,0.00,753.000000,,2013-07-27 18:43:00,
2013-07-27 11:53:00,81.0,53.0,-100.00,West,281,5.0,9.0,38,0.00,,,0.00,753.000000,,2013-07-27 18:53:00,
2013-07-27 12:02:00,81.0,53.0,-100.00,West,281,5.0,9.0,38,0.00,,,0.00,753.000000,,2013-07-27 19:02:00,
2013-07-27 12:12:00,81.0,53.0,-100.00,West,281,5.0,9.0,38,0.00,,,0.00,753.000000,,2013-07-27 19:12:00,
2013-07-27 12:43:00,86.0,49.0,-100.00,East,95,5.0,11.0,28,0.00,,,0.00,1126.000000,,2013-07-27 19:43:00,
2013-07-27 12:53:00,86.0,49.0,-100.00,East,95,5.0,11.0,28,0.00,,,0.00,1126.000000,,2013-07-27 19:53:00,
2013-07-27 13:02:00,86.0,49.0,-100.00,East,95,5.0,11.0,28,0.00,,,0.00,1126.000000,,2013-07-27 20:02:00,
2013-07-27 13:12:00,86.0,49.0,-100.00,East,95,5.0,11.0,28,0.00,,,0.00,1126.000000,,2013-07-27 20:12:00,
2013-07-27 13:52:00,86.0,47.0,-100.00,WNW,287,6.0,13.0,26,0.00,,,0.00,1173.000000,,2013-07-27 20:52:00,
2013-07-27 14:02:00,86.0,47.0,-100.00,WNW,287,6.0,13.0,26,0.00,,,0.00,1173.000000,,2013-07-27 21:02:00,
2013-07-27 14:12:00,86.0,47.0,-100.00,WNW,287,6.0,13.0,26,0.00,,,0.00,1173.000000,,2013-07-27 21:12:00,
2013-07-27 14:43:00,88.0,51.0,-100.00,WSW,250,5.0,14.0,28,0.00,,,0.00,1151.000000,,2013-07-27 21:43:00,
2013-07-27 14:53:00,88.0,51.0,-100.00,WSW,250,5.0,14.0,28,0.00,,,0.00,1151.000000,,2013-07-27 21:53:00,
2013-07-27 15:02:00,88.0,51.0,-100.00,WSW,250,5.0,14.0,28,0.00,,,0.00,1151.000000,,2013-07-27 22:02:00,
2013-07-27 15:12:00,88.0,51.0,-100.00,WSW,250,5.0,14.0,28,0.00,,,0.00,1151.000000,,2013-07-27 22:12:00,
2013-07-27 15:43:00,87.0,49.0,-100.00,West,280,6.0,16.0,27,0.00,,,0.00,1060.000000,,2013-07-27 22:43:00,
2013-07-27 15:53:00,87.0,49.0,-100.00,West,280,6.0,16.0,27,0.00,,,0.00,1060.000000,,2013-07-27 22:53:00,
2013-07-27 16:02:00,87.0,49.0,-100.00,West,280,6.0,16.0,27,0.00,,,0.00,1060.000000,,2013-07-27 23:02:00,
2013-07-27 16:12:00,87.0,49.0,-100.00,West,280,6.0,16.0,27,0.00,,,0.00,1060.000000,,2013-07-27 23:12:00,
2013-07-27 16:44:00,88.0,50.0,-100.00,WNW,291,6.0,15.0,27,0.00,,,0.00,903.000000,,2013-07-27 23:44:00,
2013-07-27 16:53:00,88.0,50.0,-100.00,WNW,291,6.0,15.0,27,0.00,,,0.00,903.000000,,2013-07-27 23:53:00,
2013-07-27 17:02:00,88.0,50.0,-100.00,WNW,291,6.0,15.0,27,0.00,,,0.00,903.000000,,2013-07-28 00:02:00,
2013-07-27 17:12:00,88.0,50.0,-100.00,WNW,291,6.0,15.0,27,0.00,,,0.00,903.000000,,2013-07-28 00:12:00,
2013-07-27 18:43:00,81.0,52.0,-100.00,WNW,293,6.0,14.0,37,-99.99,,,0.00,451.000000,,2013-07-28 01:43:00,
2013-07-27 18:53:00,81.0,52.0,-100.00,WNW,293,6.0,14.0,37,-99.99,,,0.00,451.000000,,2013-07-28 01:53:00,
2013-07-27 19:02:00,81.0,52.0,-100.00,WNW,293,6.0,14.0,37,-99.99,,,0.00,451.000000,,2013-07-28 02:02:00,
2013-07-27 19:12:00,81.0,52.0,-100.00,WNW,293,6.0,14.0,37,-99.99,,,0.00,451.000000,,2013-07-28 02:12:00,
2013-07-27 19:42:00,77.0,53.0,-100.00,WNW,292,6.0,14.0,43,0.00,,,0.00,212.000000,,2013-07-28 02:42:00,
2013-07-27 19:53:00,77.0,53.0,-100.00,WNW,292,6.0,14.0,43,0.00,,,0.00,212.000000,,2013-07-28 02:53:00,
2013-07-27 20:02:00,77.0,53.0,-100.00,WNW,292,6.0,14.0,43,0.00,,,0.00,212.000000,,2013-07-28 03:02:00,
2013-07-27 20:12:00,77.0,53.0,-100.00,WNW,292,6.0,14.0,43,0.00,,,0.00,212.000000,,2013-07-28 03:12:00,
2013-07-27 20:42:00,70.0,51.0,-100.00,WNW,288,3.0,12.0,51,0.00,,,0.00,15.000000,,2013-07-28 03:42:00,
2013-07-27 20:53:00,70.0,51.0,-100.00,WNW,288,3.0,12.0,51,0.00,,,0.00,15.000000,,2013-07-28 03:53:00,
2013-07-27 21:02:00,70.0,51.0,-100.00,WNW,288,3.0,12.0,51,0.00,,,0.00,15.000000,,2013-07-28 04:02:00,
2013-07-27 21:12:00,70.0,51.0,-100.00,WNW,288,3.0,12.0,51,0.00,,,0.00,15.000000,,2013-07-28 04:12:00,
2013-07-27 21:43:00,67.0,51.0,-100.00,NNW,341,0.0,8.0,57,0.00,,,0.00,0.000000,,2013-07-28 04:43:00,
2013-07-27 21:53:00,67.0,51.0,-100.00,NNW,341,0.0,8.0,57,0.00,,,0.00,0.000000,,2013-07-28 04:53:00,
2013-07-27 22:02:00,67.0,51.0,-100.00,NNW,341,0.0,8.0,57,0.00,,,0.00,0.000000,,2013-07-28 05:02:00,
2013-07-27 22:12:00,67.0,51.0,-100.00,NNW,341,0.0,8.0,57,0.00,,,0.00,0.000000,,2013-07-28 05:12:00,
2013-07-27 22:43:00,65.0,51.0,-100.00,SE,135,0.0,0.0,61,0.00,,,-99.99,0.000000,,2013-07-28 05:43:00,
2013-07-27 22:53:00,65.0,51.0,-100.00,SE,135,0.0,0.0,61,0.00,,,-99.99,0.000000,,2013-07-28 05:53:00,
2013-07-27 23:02:00,65.0,51.0,-100.00,SE,135,0.0,0.0,61,0.00,,,-99.99,0.000000,,2013-07-28 06:02:00,
2013-07-27 23:12:00,65.0,51.0,-100.00,SE,135,0.0,0.0,61,0.00,,,-99.99,0.000000,,2013-07-28 06:12:00,
2013-07-27 23:43:00,62.0,49.0,-100.00,East,93,0.0,0.0,63,0.00,,,0.00,0.000000,,2013-07-28 06:43:00,
2013-07-27 23:52:00,62.0,49.0,-100.00,East,93,0.0,0.0,63,0.00,,,0.00,0.000000,,2013-07-28 06:52:00,